Flight Track Log - Related Links

Times and Time Zones

All times are in EDT time to prevent confusion due to time zone crossing. See the QLK106D flight status page for this flight to view local times or setup timezone preferences in your user account.

Time Position Orientation Groundspeed Altitude Reporting Facility
EDT Latitude Longitude Course Direction KTS MPH feet Rate Location/Type
Thu 06:54:54 PM -33.8853 151.2105 198° South 12,000  Level Aus ATC (Calculated)
Thu 06:55:16 PM -33.9390 151.1900 North 141 162 1,400 -9,895 Descending Aus ATC (RADAR)
Thu 06:55:51 PM -33.9106 151.1938 North 178 205 2,600 2,025 Climbing Aus ATC (RADAR)
Thu 06:56:36 PM -33.8667 151.2005 North 218 251 4,100 1,067 Climbing Aus ATC (RADAR)
Thu 06:58:06 PM -33.7696 151.2409 19° North 258 297 5,000 470 Climbing Aus ATC (RADAR)
Thu 06:58:31 PM -33.7424 151.2579 28° Northeast 262 302 5,000  Level Aus ATC (RADAR)
Thu 06:58:56 PM -33.7151 151.2749 27° Northeast 264 304 5,000 900 Level Aus ATC (RADAR)
Thu 06:59:31 PM -33.6764 151.2980 26° Northeast 266 306 5,900 1,852 Climbing Aus ATC (RADAR)
Thu 07:00:17 PM -33.6262 151.3292 27° Northeast 274 315 7,500 2,250 Climbing Aus ATC (RADAR)
Thu 07:00:51 PM -33.5862 151.3537 27° Northeast 278 320 8,900 2,348 Climbing Aus ATC (RADAR)
Thu 07:01:26 PM -33.5457 151.3779 27° Northeast 281 323 10,200 2,143 Climbing Aus ATC (RADAR)
Thu 07:02:01 PM -33.5046 151.4029 27° Northeast 286 329 11,400 2,147 Climbing Aus ATC (RADAR)
Thu 07:03:01 PM -33.4323 151.4472 27° Northeast 295 339 13,600 2,084 Climbing Aus ATC (RADAR)
Thu 07:03:36 PM -33.3905 151.4732 27° Northeast 293 337 14,700 1,886 Climbing Aus ATC (RADAR)
Thu 07:04:11 PM -33.3477 151.4995 27° Northeast 298 343 15,800 1,971 Climbing Aus ATC (RADAR)
Thu 07:04:46 PM -33.3053 151.5262 28° Northeast 296 341 17,000 1,714 Climbing Aus ATC (RADAR)
Thu 07:05:21 PM -33.2614 151.5525 27° Northeast 303 349 17,800 1,371 Climbing Aus ATC (RADAR)
Thu 07:05:56 PM -33.2163 151.5798 27° Northeast 311 358 18,600 1,200 Climbing Aus ATC (RADAR)
Thu 07:06:46 PM -33.1489 151.6201 27° Northeast 326 375 19,500 1,360 Climbing Aus ATC (RADAR)
Thu 07:07:11 PM -33.1152 151.6408 27° Northeast 327 376 20,300 933 Climbing Aus ATC (RADAR)
Thu 07:08:16 PM -33.0249 151.6949 27° Northeast 340 391 20,900 400 Climbing Aus ATC (RADAR)
Thu 07:08:41 PM -32.9875 151.7172 27° Northeast 355 409 20,900  Level Aus ATC (RADAR)
Thu 07:09:16 PM -32.9334 151.7500 27° Northeast 370 426 20,900  Level Aus ATC (RADAR)
Thu 07:10:05 PM -32.8534 151.7983 27° Northeast 383 441 20,900  Level Aus ATC (RADAR)
Thu 07:10:40 PM -32.7967 151.8304 25° Northeast 386 444 20,900  Level Aus ATC (RADAR)
Thu 07:11:26 PM -32.7225 151.8493 12° North 365 420 20,900  Level Aus ATC (RADAR)
Thu 07:11:50 PM -32.6807 151.8576 North 364 419 20,900  Level Aus ATC (RADAR)
Thu 07:12:25 PM -32.6229 151.8699 10° North 363 418 20,900  Level Aus ATC (RADAR)
Thu 07:13:40 PM -32.4990 151.9001 12° North 361 415 20,900  Level Aus ATC (RADAR)
Thu 07:14:05 PM -32.4576 151.9102 12° North 363 418 20,900  Level Aus ATC (RADAR)
Thu 07:14:40 PM -32.3992 151.9242 11° North 367 422 20,900  Level Aus ATC (RADAR)
Thu 07:15:30 PM -32.3160 151.9430 11° North 366 421 20,900  Level Aus ATC (RADAR)
Thu 07:16:05 PM -32.2574 151.9566 11° North 367 422 20,900  Level Aus ATC (RADAR)
Thu 07:16:50 PM -32.1826 151.9737 11° North 365 420 20,900  Level Aus ATC (RADAR)
Thu 07:17:15 PM -32.1410 151.9838 12° North 366 421 20,900  Level Aus ATC (RADAR)
Thu 07:18:30 PM -32.0171 152.0264 16° North 383 441 20,900  Level Aus ATC (RADAR)
Thu 07:18:55 PM -31.9800 152.0582 36° Northeast 389 448 20,900  Level Aus ATC (RADAR)
Thu 07:19:30 PM -31.9286 152.1030 37° Northeast 389 448 20,900 71 Level Aus ATC (RADAR)
Thu 07:20:20 PM -31.8537 152.1640 35° Northeast 386 444 21,000 71 Climbing Aus ATC (RADAR)
Thu 07:20:55 PM -31.8009 152.2060 34° Northeast 386 444 21,000  Level Aus ATC (RADAR)
Thu 07:21:45 PM -31.7258 152.2655 34° Northeast 387 445 21,000  Level Aus ATC (RADAR)
Thu 07:22:10 PM -31.6882 152.2951 34° Northeast 384 442 21,000  Level Aus ATC (RADAR)
Thu 07:23:25 PM -31.5771 152.3833 34° Northeast 380 437 21,000 -180 Level Aus ATC (RADAR)
Thu 07:23:50 PM -31.5405 152.4129 35° Northeast 378 435 20,700 -840 Descending Aus ATC (RADAR)
Thu 07:24:15 PM -31.5036 152.4415 33° Northeast 375 432 20,300 -1,000 Descending Aus ATC (RADAR)
Thu 07:24:50 PM -31.4524 152.4815 34° Northeast 373 429 19,700 -988 Descending Aus ATC (RADAR)
Thu 07:25:40 PM -31.3799 152.5380 34° Northeast 371 427 18,900 -1,000 Descending Aus ATC (RADAR)
Thu 07:26:14 PM -31.3288 152.5786 34° Northeast 373 429 18,300 -1,063 Descending Aus ATC (RADAR)
Thu 07:26:59 PM -31.2612 152.6339 35° Northeast 386 444 17,500 -1,200 Descending Aus ATC (RADAR)
Thu 07:27:24 PM -31.2241 152.6632 34° Northeast 375 432 16,900 -1,563 Descending Aus ATC (RADAR)
Thu 07:28:35 PM -31.1245 152.7399 33° Northeast 356 410 15,000 -1,579 Descending Aus ATC (RADAR)
Thu 07:28:59 PM -31.0898 152.7665 33° Northeast 350 403 14,400 -1,627 Descending Aus ATC (RADAR)
Thu 07:29:34 PM -31.0433 152.7998 31° Northeast 337 388 13,400 -1,553 Descending Aus ATC (RADAR)
Thu 07:30:24 PM -30.9698 152.8311 20° North 332 382 12,200 -1,482 Descending Aus ATC (RADAR)
Thu 07:30:59 PM -30.9191 152.8523 20° North 327 376 11,300 -1,416 Descending Aus ATC (RADAR)
Thu 07:31:53 PM -30.8456 152.8868 22° Northeast 310 357 10,100 -1,286 Descending Aus ATC (RADAR)
Thu 07:32:09 PM -30.8267 152.8949 20° North 293 337 9,800 -1,294 Descending Aus ATC (RADAR)
Thu 07:32:44 PM -30.7833 152.9135 20° North 282 325 9,000 -1,389 Descending Aus ATC (RADAR)
Thu 07:33:44 PM -30.7114 152.9457 21° North 273 314 7,600 -1,341 Descending Aus ATC (RADAR)
Thu 07:34:09 PM -30.6819 152.9596 22° Northeast 271 312 7,100 -1,313 Descending Aus ATC (RADAR)
Thu 07:34:48 PM -30.6356 152.9811 22° Northeast 271 312 6,200 -1,341 Descending Aus ATC (RADAR)
Thu 07:35:34 PM -30.5824 153.0039 20° North 266 306 5,200 -1,259 Descending Aus ATC (RADAR)
Thu 07:36:09 PM -30.5420 153.0220 21° North 263 303 4,500 -1,275 Descending Aus ATC (RADAR)
Thu 07:36:54 PM -30.4906 153.0450 21° North 259 298 3,500 -1,297 Descending Aus ATC (RADAR)
Thu 07:37:23 PM -30.4583 153.0599 22° Northeast 249 287 2,900 -1,241 Descending Aus ATC (RADAR)
Thu 07:39:00 PM -30.3184 153.1148 19° North  Level FlightAware Approximate
Thu 07:46:00 PM -30.3122 153.1172 21° North  Level FlightAware Approximate
Thu 07:47:00 PM -30.3206 153.1164 21° North  Level Estimated
Thu 07:48:00 PM -30.3206 153.1164 21° North  Level Estimated
Thu 07:49:00 PM -30.3206 153.1164 21° North  Level Estimated
Thu 07:50:00 PM -30.3206 153.1164 21° North  Level Estimated
Thu 07:51:00 PM -30.3206 153.1164 21° North  Level Estimated
Thu 07:52:00 PM -30.3206 153.1164 21° North  Level Estimated
Thu 07:53:00 PM -30.3206 153.1164 21° North  Level Estimated
Thu 07:54:00 PM -30.3206 153.1164 21° North  Level Estimated

Login

Don't have an account? Register now (free) for customized features, flight alerts, and more!